Time;durP1;ratioP1;P1;durP2;ratioP2;P2;SDS_P1;SDS_P2;PMS_P1;PMS_P2;Temp;Humidity;BMP_temperature;BMP_pressure;BME280_temperature;BME280_humidity;BME280_pressure;Samples;Min_cycle;Max_cycle;Signal;HPM_P1;HPM_P2
2023/04/09 00:01:06;;;;;;;40.65;35.90;;;;;;;12.15;100.00;102458.72;5243227;28;20021;-71
2023/04/09 00:03:39;;;;;;;40.47;36.10;;;;;;;11.96;100.00;102448.56;5237248;28;20033;-70
2023/04/09 00:06:11;;;;;;;39.88;35.65;;;;;;;12.03;100.00;102455.13;5242730;28;20044;-69
2023/04/09 00:08:42;;;;;;;40.50;36.17;;;;;;;11.95;100.00;102451.31;5245817;28;20371;-70
2023/04/09 00:11:13;;;;;;;41.42;37.03;;;;;;;11.93;100.00;102446.13;5243043;28;20099;-71
2023/04/09 00:13:44;;;;;;;43.53;38.80;;;;;;;11.93;100.00;102451.41;5240550;28;20033;-71
2023/04/09 00:16:16;;;;;;;42.72;38.03;;;;;;;11.91;100.00;102448.03;5246399;28;20422;-70
2023/04/09 00:18:47;;;;;;;42.58;37.38;;;;;;;11.96;100.00;102443.31;5243392;28;20033;-70
2023/04/09 00:21:19;;;;;;;40.20;35.90;;;;;;;11.99;100.00;102442.28;5241598;28;20017;-70
2023/04/09 00:23:50;;;;;;;39.42;35.13;;;;;;;11.91;100.00;102448.03;5243634;28;20053;-69
2023/04/09 00:26:22;;;;;;;38.35;34.20;;;;;;;11.92;100.00;102436.59;5246568;28;20132;-69
2023/04/09 00:28:54;;;;;;;38.30;34.22;;;;;;;11.97;100.00;102436.28;5243258;28;20111;-70
2023/04/09 00:31:25;;;;;;;37.03;33.03;;;;;;;12.03;100.00;102441.13;5242543;28;20057;-70
2023/04/09 00:33:56;;;;;;;37.30;33.28;;;;;;;12.02;100.00;102444.72;5244017;28;20116;-70
2023/04/09 00:36:28;;;;;;;37.28;33.33;;;;;;;11.98;100.00;102428.31;5244948;28;20031;-70
2023/04/09 00:38:59;;;;;;;33.58;30.08;;;;;;;11.93;100.00;102441.75;5244360;28;20028;-70
2023/04/09 00:41:30;;;;;;;33.60;30.10;;;;;;;11.99;100.00;102437.03;5243119;28;20394;-70
2023/04/09 00:44:02;;;;;;;34.50;30.02;;;;;;;11.98;100.00;102436.19;5245652;28;20029;-70
2023/04/09 00:46:33;;;;;;;31.67;28.48;;;;;;;11.95;100.00;102432.94;5243112;28;20086;-69
2023/04/09 00:49:05;;;;;;;30.90;27.77;;;;;;;11.91;100.00;102430.50;5243953;28;20028;-71
2023/04/09 00:51:37;;;;;;;30.80;27.67;;;;;;;11.93;100.00;102431.25;5244908;28;20029;-71
2023/04/09 00:54:09;;;;;;;30.75;27.45;;;;;;;11.96;100.00;102424.94;5243057;28;20018;-70
2023/04/09 00:56:41;;;;;;;31.05;27.75;;;;;;;11.91;100.00;102427.03;5240424;28;20060;-70
2023/04/09 00:59:12;;;;;;;29.42;26.08;;;;;;;11.86;100.00;102435.22;5242337;28;20033;-70
2023/04/09 01:01:44;;;;;;;30.15;26.88;;;;;;;11.87;100.00;102431.63;5240749;28;20027;-70
2023/04/09 01:04:15;;;;;;;29.60;26.30;;;;;;;11.86;100.00;102418.63;5236808;28;20077;-70
2023/04/09 01:06:52;;;;;;;27.67;24.80;;;;;;;12.01;100.00;102422.00;5240169;28;20020;-70
2023/04/09 01:09:29;;;;;;;27.38;24.48;;;;;;;11.98;100.00;102420.44;5241607;28;20082;-70
2023/04/09 01:12:22;;;;;;;28.45;25.38;;;;;;;12.22;100.00;102417.97;5241090;28;20024;-70
2023/04/09 01:15:07;;;;;;;27.10;23.95;;;;;;;12.10;100.00;102422.25;5241234;28;20333;-70
2023/04/09 01:18:05;;;;;;;26.63;23.88;;;;;;;12.15;100.00;102409.63;5244046;28;20550;-70
2023/04/09 01:20:39;;;;;;;26.27;23.48;;;;;;;11.82;100.00;102414.44;5240790;28;20127;-71
2023/04/09 01:23:18;;;;;;;27.15;24.33;;;;;;;11.86;100.00;102406.31;5245351;28;20029;-69
2023/04/09 01:26:27;;;;;;;28.05;25.08;;;;;;;12.02;100.00;102402.69;5246539;28;20029;-69
2023/04/09 01:29:00;;;;;;;25.33;22.70;;;;;;;11.65;100.00;102407.69;5245230;28;20017;-70
2023/04/09 01:31:36;;;;;;;27.42;24.52;;;;;;;11.79;100.00;102409.41;5246255;28;20036;-68
2023/04/09 01:34:08;;;;;;;26.27;23.48;;;;;;;11.69;100.00;102417.03;5245748;28;20033;-70
2023/04/09 01:36:43;;;;;;;26.20;23.33;;;;;;;11.76;100.00;102412.25;5244722;28;20124;-69
2023/04/09 01:39:15;;;;;;;28.30;23.98;;;;;;;11.59;100.00;102408.06;5246181;28;20459;-70
2023/04/09 01:41:47;;;;;;;26.92;24.13;;;;;;;11.65;100.00;102410.31;5239120;28;20029;-70
2023/04/09 01:44:19;;;;;;;25.17;22.40;;;;;;;11.68;100.00;102413.56;5245532;28;20029;-69
2023/04/09 01:46:52;;;;;;;26.42;23.67;;;;;;;11.73;100.00;102413.28;5246532;28;20275;-71
2023/04/09 01:49:23;;;;;;;28.08;25.08;;;;;;;11.73;100.00;102400.13;5250997;28;20031;-71
2023/04/09 01:51:54;;;;;;;25.45;22.77;;;;;;;11.64;100.00;102406.84;5244794;28;20032;-70
2023/04/09 01:54:26;;;;;;;25.02;22.48;;;;;;;11.69;100.00;102406.53;5247556;28;20483;-70
2023/04/09 01:56:57;;;;;;;26.35;23.55;;;;;;;11.68;100.00;102410.94;5245303;28;20029;-71
2023/04/09 01:59:28;;;;;;;27.13;24.33;;;;;;;11.65;100.00;102405.06;5244263;28;20071;-69
2023/04/09 02:02:17;;;;;;;27.40;24.50;;;;;;;11.91;100.00;102409.47;5248343;28;20029;-71
2023/04/09 02:04:52;;;;;;;26.55;23.50;;;;;;;11.75;100.00;102405.31;5245078;28;20142;-69
2023/04/09 02:07:35;;;;;;;26.20;23.50;;;;;;;11.82;100.00;102410.06;5247534;28;20028;-71
2023/04/09 02:10:08;;;;;;;28.02;24.98;;;;;;;11.75;100.00;102405.31;5245032;28;20037;-70
2023/04/09 02:12:47;;;;;;;28.63;25.65;;;;;;;11.81;100.00;102403.09;5244708;28;20025;-70
2023/04/09 02:15:20;;;;;;;28.58;25.52;;;;;;;11.67;100.00;102401.41;5247336;28;20021;-70
2023/04/09 02:17:52;;;;;;;28.45;25.02;;;;;;;11.67;100.00;102403.19;5246944;28;20569;-70
2023/04/09 02:20:23;;;;;;;28.27;25.27;;;;;;;11.65;100.00;102394.56;5244394;28;20017;-70
2023/04/09 02:22:54;;;;;;;30.05;25.40;;;;;;;11.67;100.00;102403.19;5246652;28;20033;-71
2023/04/09 02:25:26;;;;;;;30.63;27.30;;;;;;;11.67;100.00;102390.91;5247833;28;20402;-71
2023/04/09 02:27:57;;;;;;;30.33;25.80;;;;;;;11.64;100.00;102390.25;5245165;28;20557;-71
2023/04/09 02:30:29;;;;;;;29.10;26.00;;;;;;;11.68;100.00;102400.44;5246660;28;20032;-71
2023/04/09 02:33:00;;;;;;;29.85;26.05;;;;;;;11.66;100.00;102397.06;5247625;28;20181;-70
2023/04/09 02:35:32;;;;;;;31.08;27.38;;;;;;;11.63;100.00;102399.91;5246275;28;20032;-71
2023/04/09 02:38:03;;;;;;;30.52;27.27;;;;;;;11.60;100.00;102392.22;5248354;28;20029;-71
2023/04/09 02:40:34;;;;;;;31.27;26.42;;;;;;;11.66;100.00;102393.59;5245878;28;20516;-71
2023/04/09 02:43:06;;;;;;;34.55;28.55;;;;;;;11.61;100.00;102383.41;5245083;28;20163;-69
2023/04/09 02:45:37;;;;;;;30.88;26.40;;;;;;;11.62;100.00;102390.31;5239669;28;20063;-70
2023/04/09 02:48:08;;;;;;;31.25;27.95;;;;;;;11.61;100.00;102395.69;5240779;28;20021;-70
2023/04/09 02:50:40;;;;;;;31.70;28.13;;;;;;;11.61;100.00;102385.19;5239870;28;20117;-69
2023/04/09 02:53:11;;;;;;;30.85;27.52;;;;;;;11.59;100.00;102380.06;5238667;28;20106;-70
2023/04/09 02:55:42;;;;;;;30.65;27.35;;;;;;;11.58;100.00;102388.00;5244463;28;20074;-70
2023/04/09 02:58:14;;;;;;;31.60;28.10;;;;;;;11.54;100.00;102373.41;5241607;28;20116;-72
2023/04/09 03:00:45;;;;;;;32.38;27.67;;;;;;;11.55;100.00;102383.78;5242812;28;20032;-70
2023/04/09 03:03:17;;;;;;;32.80;28.48;;;;;;;11.56;100.00;102380.25;5240129;28;20287;-70
2023/04/09 03:05:48;;;;;;;32.17;28.25;;;;;;;11.56;100.00;102379.41;5244433;28;20060;-70
2023/04/09 03:08:19;;;;;;;33.20;29.48;;;;;;;11.55;100.00;102372.44;5242482;28;20044;-70
2023/04/09 03:10:50;;;;;;;37.08;31.90;;;;;;;11.53;100.00;102372.56;5241824;28;20022;-70
2023/04/09 03:13:22;;;;;;;33.67;28.45;;;;;;;11.57;100.00;102368.78;5240680;28;20037;-70
2023/04/09 03:15:53;;;;;;;33.83;29.20;;;;;;;11.51;100.00;102353.44;5241179;28;20906;-70
2023/04/09 03:18:24;;;;;;;36.85;30.15;;;;;;;11.66;100.00;102367.34;5242005;28;20057;-69
2023/04/09 03:20:55;;;;;;;38.17;30.73;;;;;;;11.57;100.00;102362.72;5240373;28;20025;-70
2023/04/09 03:23:27;;;;;;;37.65;31.50;;;;;;;11.60;100.00;102363.34;5245105;28;20032;-70
2023/04/09 03:26:05;;;;;;;35.30;30.10;;;;;;;11.67;100.00;102371.69;5240240;28;20056;-70
2023/04/09 03:28:36;;;;;;;37.75;30.65;;;;;;;11.64;100.00;102370.09;5240799;28;20032;-70
2023/04/09 03:31:07;;;;;;;37.00;30.48;;;;;;;11.62;100.00;102363.25;5240374;28;20052;-70
2023/04/09 03:33:38;;;;;;;39.60;32.63;;;;;;;11.32;100.00;102324.91;5242684;28;20048;-71
2023/04/09 03:36:10;;;;;;;37.63;31.33;;;;;;;11.59;100.00;102358.19;5242968;28;20028;-70
2023/04/09 03:38:41;;;;;;;37.05;30.25;;;;;;;11.65;100.00;102363.03;5245458;28;20036;-70
2023/04/09 03:41:12;;;;;;;37.53;31.63;;;;;;;11.60;100.00;102358.09;5246773;28;20339;-70
2023/04/09 03:43:44;;;;;;;37.35;30.52;;;;;;;11.56;100.00;102356.63;5246630;28;20040;-70
2023/04/09 03:46:16;;;;;;;41.17;32.95;;;;;;;11.57;100.00;102360.91;5244095;28;20078;-71
2023/04/09 03:48:47;;;;;;;36.25;30.50;;;;;;;11.51;100.00;102356.06;5244335;28;20020;-70
2023/04/09 03:51:19;;;;;;;40.78;33.08;;;;;;;11.53;100.00;102351.56;5241013;28;20059;-70
2023/04/09 03:53:50;;;;;;;38.90;32.45;;;;;;;11.58;100.00;102353.88;5239897;28;20104;-70
2023/04/09 03:56:21;;;;;;;38.40;31.85;;;;;;;11.56;100.00;102348.75;5243342;28;20044;-70
2023/04/09 03:58:53;;;;;;;37.63;31.75;;;;;;;11.54;100.00;102347.16;5244949;28;20445;-71
2023/04/09 04:01:24;;;;;;;39.83;32.83;;;;;;;11.54;100.00;102357.66;5243892;28;20100;-70
2023/04/09 04:03:55;;;;;;;38.20;31.63;;;;;;;11.42;100.00;102347.00;5246697;28;20502;-70
2023/04/09 04:06:27;;;;;;;38.47;31.92;;;;;;;11.36;100.00;102357.03;5244600;28;20025;-70
2023/04/09 04:08:58;;;;;;;38.35;31.50;;;;;;;11.37;100.00;102358.75;5245928;28;20037;-70
2023/04/09 04:11:29;;;;;;;37.42;32.45;;;;;;;11.35;100.00;102352.75;5239875;28;20021;-70
2023/04/09 04:14:01;;;;;;;33.92;29.92;;;;;;;11.32;100.00;102359.00;5242680;28;20037;-71
2023/04/09 04:16:32;;;;;;;34.42;29.42;;;;;;;11.31;100.00;102356.50;5243053;28;20087;-72
2023/04/09 04:19:03;;;;;;;34.30;29.60;;;;;;;11.31;100.00;102362.59;5246916;28;20029;-71
2023/04/09 04:21:34;;;;;;;34.55;29.92;;;;;;;11.28;100.00;102357.53;5243184;28;20055;-70
2023/04/09 04:24:06;;;;;;;35.72;29.60;;;;;;;11.11;100.00;102332.38;5247288;28;20084;-72
2023/04/09 04:26:39;;;;;;;35.47;29.38;;;;;;;11.33;100.00;102354.63;5244736;28;20192;-70
2023/04/09 04:29:10;;;;;;;36.50;29.65;;;;;;;11.30;100.00;102355.66;5242289;28;20103;-71
2023/04/09 04:31:41;;;;;;;36.97;30.33;;;;;;;11.27;100.00;102349.78;5243373;28;20081;-71
2023/04/09 04:34:12;;;;;;;35.88;29.95;;;;;;;11.31;100.00;102353.88;5245110;28;20028;-70
2023/04/09 04:36:44;;;;;;;34.95;28.77;;;;;;;11.20;100.00;102344.91;5244109;28;20106;-70
2023/04/09 04:39:15;;;;;;;36.55;30.67;;;;;;;11.20;100.00;102351.94;5244866;28;20036;-71
2023/04/09 04:41:46;;;;;;;34.85;30.52;;;;;;;11.16;100.00;102353.06;5242136;28;20078;-70
2023/04/09 04:44:17;;;;;;;37.10;29.90;;;;;;;11.15;100.00;102351.41;5243440;28;20028;-69
2023/04/09 04:46:49;;;;;;;34.88;29.98;;;;;;;11.09;100.00;102351.78;5243762;28;20029;-71
2023/04/09 04:49:20;;;;;;;36.50;30.67;;;;;;;11.02;100.00;102351.31;5245259;28;20028;-70
2023/04/09 04:51:51;;;;;;;34.72;29.98;;;;;;;10.98;100.00;102346.34;5244212;28;20021;-69
2023/04/09 04:54:22;;;;;;;35.17;29.70;;;;;;;10.95;100.00;102361.34;5241912;28;20298;-70
2023/04/09 04:56:55;;;;;;;34.63;28.42;;;;;;;10.90;100.00;102352.06;5244366;28;20044;-70
2023/04/09 04:59:26;;;;;;;38.15;29.77;;;;;;;10.74;100.00;102353.97;5243524;28;20028;-71
2023/04/09 05:01:57;;;;;;;35.97;29.35;;;;;;;10.72;100.00;102359.31;5239025;28;20029;-70
2023/04/09 05:04:28;;;;;;;34.20;28.92;;;;;;;10.70;100.00;102354.16;5244017;28;20045;-71
2023/04/09 05:07:00;;;;;;;36.95;29.63;;;;;;;10.69;100.00;102362.97;5247215;28;20551;-70
2023/04/09 05:09:31;;;;;;;35.05;28.95;;;;;;;10.46;100.00;102353.03;5240924;28;20513;-71
2023/04/09 05:12:02;;;;;;;34.58;27.92;;;;;;;10.41;100.00;102350.66;5242118;28;20488;-70
2023/04/09 05:14:34;;;;;;;33.70;27.75;;;;;;;10.34;100.00;102354.63;5237978;28;20039;-71
2023/04/09 05:17:05;;;;;;;36.45;27.77;;;;;;;10.21;100.00;102351.81;5243146;28;20025;-69
2023/04/09 05:19:36;;;;;;;35.70;27.48;;;;;;;10.22;100.00;102357.91;5243687;28;20033;-70
2023/04/09 05:22:08;;;;;;;33.53;27.88;;;;;;;10.19;100.00;102360.69;5240908;28;20162;-69
2023/04/09 05:24:39;;;;;;;32.90;26.75;;;;;;;10.18;100.00;102356.41;5239919;28;20554;-70
2023/04/09 05:27:10;;;;;;;34.25;28.35;;;;;;;10.10;100.00;102353.41;5233680;28;20068;-69
2023/04/09 05:29:42;;;;;;;34.28;28.08;;;;;;;10.03;100.00;102352.06;5240099;28;20036;-70
2023/04/09 05:32:13;;;;;;;34.15;28.13;;;;;;;9.99;100.00;102354.84;5238957;28;20021;-70
2023/04/09 05:34:44;;;;;;;34.63;27.73;;;;;;;9.97;100.00;102361.13;5237615;28;20041;-70
2023/04/09 05:37:15;;;;;;;33.45;26.52;;;;;;;10.04;100.00;102361.59;5240891;28;20032;-70
2023/04/09 05:39:47;;;;;;;35.25;27.60;;;;;;;9.99;100.00;102361.88;5239035;28;20559;-69
2023/04/09 05:42:18;;;;;;;33.00;27.35;;;;;;;9.92;100.00;102358.75;5238813;28;20029;-70
2023/04/09 05:44:49;;;;;;;33.03;27.95;;;;;;;9.92;100.00;102355.31;5239341;28;20021;-70
2023/04/09 05:47:21;;;;;;;32.15;26.50;;;;;;;9.96;100.00;102362.91;5240789;28;20043;-70
2023/04/09 05:49:52;;;;;;;32.15;25.92;;;;;;;9.98;100.00;102358.41;5241623;28;20444;-70
2023/04/09 05:52:23;;;;;;;32.83;25.75;;;;;;;10.06;100.00;102355.34;5244558;28;20368;-69
2023/04/09 05:54:55;;;;;;;34.28;27.08;;;;;;;9.97;100.00;102356.75;5241905;28;20064;-69
2023/04/09 05:57:29;;;;;;;34.45;27.02;;;;;;;9.88;100.00;102362.50;5242240;28;20025;-69
2023/04/09 06:00:00;;;;;;;33.13;26.17;;;;;;;9.89;100.00;102364.19;5241823;28;20056;-70
2023/04/09 06:02:31;;;;;;;33.97;27.80;;;;;;;9.82;100.00;102368.09;5242314;28;20115;-70
2023/04/09 06:05:02;;;;;;;31.08;25.20;;;;;;;9.84;100.00;102371.44;5240271;28;20046;-70
2023/04/09 06:07:34;;;;;;;33.28;26.83;;;;;;;9.92;100.00;102368.38;5243188;28;20035;-70
2023/04/09 06:10:06;;;;;;;33.13;26.30;;;;;;;9.86;100.00;102374.84;5244726;28;20071;-69
2023/04/09 06:12:37;;;;;;;33.67;27.67;;;;;;;9.87;100.00;102371.28;5247996;28;20702;-69
2023/04/09 06:15:09;;;;;;;34.35;26.98;;;;;;;9.89;100.00;102376.44;5246073;28;20055;-70
2023/04/09 06:17:41;;;;;;;34.03;27.88;;;;;;;9.84;100.00;102371.44;5242229;28;20563;-70
2023/04/09 06:20:12;;;;;;;33.17;26.95;;;;;;;9.89;100.00;102372.06;5242917;28;20054;-70
2023/04/09 06:22:43;;;;;;;35.72;28.30;;;;;;;9.94;100.00;102372.63;5241950;28;20096;-70
2023/04/09 06:25:14;;;;;;;35.67;28.38;;;;;;;9.89;100.00;102374.66;5244227;28;20025;-69
2023/04/09 06:27:46;;;;;;;33.30;27.17;;;;;;;9.92;100.00;102371.84;5244303;28;20063;-70
2023/04/09 06:30:17;;;;;;;34.13;28.15;;;;;;;9.93;100.00;102373.56;5241827;28;20100;-70
2023/04/09 06:32:50;;;;;;;35.05;27.77;;;;;;;9.96;100.00;102381.25;5240283;28;20112;-70
2023/04/09 06:35:21;;;;;;;33.72;26.52;;;;;;;10.04;100.00;102385.16;5242052;28;20483;-70
2023/04/09 06:37:53;;;;;;;35.63;28.52;;;;;;;10.02;100.00;102380.03;5243060;28;20051;-70
2023/04/09 06:40:24;;;;;;;33.35;27.17;;;;;;;10.06;100.00;102383.31;5242148;28;20547;-70
2023/04/09 06:42:55;;;;;;;35.10;27.27;;;;;;;10.14;100.00;102381.09;5242483;28;20056;-71
2023/04/09 06:45:27;;;;;;;32.80;27.17;;;;;;;10.20;100.00;102384.19;5242947;28;20087;-71
2023/04/09 06:47:59;;;;;;;33.10;26.83;;;;;;;10.31;100.00;102390.63;5245617;28;21015;-70
2023/04/09 06:50:30;;;;;;;35.17;28.95;;;;;;;10.36;100.00;102389.41;5240066;28;20036;-71
2023/04/09 06:53:01;;;;;;;34.38;29.05;;;;;;;10.39;100.00;102391.00;5243953;28;20029;-71
2023/04/09 06:55:33;;;;;;;36.20;29.25;;;;;;;10.44;100.00;102386.31;5248248;28;20089;-70
2023/04/09 06:58:04;;;;;;;33.72;26.65;;;;;;;10.37;100.00;102387.63;5247570;28;20031;-70
2023/04/09 07:00:35;;;;;;;33.33;27.77;;;;;;;10.47;100.00;102394.00;5245829;28;20422;-71
2023/04/09 07:03:07;;;;;;;33.80;27.85;;;;;;;10.53;100.00;102398.91;5244085;28;20033;-69
2023/04/09 07:05:39;;;;;;;32.88;27.40;;;;;;;10.59;100.00;102395.06;5244282;28;20726;-70
2023/04/09 07:08:10;;;;;;;34.15;28.52;;;;;;;10.64;100.00;102388.59;5240948;28;20055;-70
2023/04/09 07:10:41;;;;;;;34.75;28.90;;;;;;;10.76;100.00;102394.03;5240853;28;20025;-70
2023/04/09 07:13:13;;;;;;;31.50;26.55;;;;;;;10.80;100.00;102392.94;5241550;28;20051;-70
2023/04/09 07:15:44;;;;;;;33.30;27.23;;;;;;;10.95;100.00;102387.56;5242810;28;20036;-70
2023/04/09 07:18:15;;;;;;;34.70;28.10;;;;;;;11.00;100.00;102392.53;5238458;28;20022;-69
2023/04/09 07:20:47;;;;;;;33.88;27.58;;;;;;;11.00;100.00;102394.31;5242264;28;20139;-70
2023/04/09 07:23:18;;;;;;;35.05;27.95;;;;;;;11.01;100.00;102393.38;5242870;28;20032;-70
2023/04/09 07:25:50;;;;;;;33.50;27.92;;;;;;;11.09;100.00;102398.97;5240872;28;20044;-70
2023/04/09 07:28:21;;;;;;;32.72;28.00;;;;;;;11.27;100.00;102399.63;5241848;28;20502;-70
2023/04/09 07:30:53;;;;;;;34.10;28.27;;;;;;;11.33;100.00;102399.25;5240784;28;20054;-70
2023/04/09 07:33:24;;;;;;;35.80;28.38;;;;;;;11.49;100.00;102399.94;5241356;28;20079;-71
2023/04/09 07:35:56;;;;;;;31.45;27.67;;;;;;;11.63;100.00;102399.03;5244371;28;20041;-70
2023/04/09 07:38:31;;;;;;;32.92;27.63;;;;;;;11.72;100.00;102390.59;5240205;28;20033;-70
2023/04/09 07:41:02;;;;;;;32.90;26.77;;;;;;;11.76;100.00;102401.75;5230482;28;20033;-70
2023/04/09 07:43:33;;;;;;;33.08;28.27;;;;;;;11.95;100.00;102401.41;5242067;28;20072;-69
2023/04/09 07:46:05;;;;;;;32.35;27.73;;;;;;;11.98;99.79;102399.44;5240586;28;20037;-69
2023/04/09 07:48:37;;;;;;;33.03;28.10;;;;;;;12.18;100.00;102395.47;5241725;28;20053;-69
2023/04/09 07:51:10;;;;;;;31.75;27.13;;;;;;;12.30;99.06;102391.16;5237640;28;20399;-70
2023/04/09 07:53:41;;;;;;;32.53;27.48;;;;;;;12.30;96.97;102399.88;5243190;28;20474;-70
2023/04/09 07:56:12;;;;;;;33.10;27.98;;;;;;;12.52;100.00;102403.72;5241347;28;20037;-70
2023/04/09 07:58:44;;;;;;;31.88;27.10;;;;;;;12.44;95.61;102398.13;5242448;28;20060;-70
2023/04/09 08:01:15;;;;;;;33.47;27.80;;;;;;;12.53;96.21;102406.22;5239145;28;20033;-70
2023/04/09 08:03:47;;;;;;;32.75;27.45;;;;;;;12.64;94.81;102395.81;5242517;28;20096;-69
2023/04/09 08:06:18;;;;;;;34.17;27.55;;;;;;;12.62;92.63;102395.09;5242546;28;20442;-70
2023/04/09 08:08:49;;;;;;;31.83;27.70;;;;;;;12.82;93.87;102396.34;5243363;28;20033;-70
2023/04/09 08:11:24;;;;;;;32.47;28.63;;;;;;;12.94;93.99;102396.44;5239891;28;20087;-70
2023/04/09 08:13:56;;;;;;;33.75;29.30;;;;;;;13.10;94.34;102389.13;5238685;28;20021;-70
2023/04/09 08:16:29;;;;;;;32.75;28.20;;;;;;;13.09;92.26;102388.28;5238847;28;20078;-70
2023/04/09 08:19:00;;;;;;;33.40;28.83;;;;;;;13.17;90.44;102390.38;5241029;28;20366;-70
2023/04/09 08:21:31;;;;;;;32.33;28.85;;;;;;;13.40;92.03;102383.50;5241912;28;20386;-70
2023/04/09 08:24:04;;;;;;;34.92;30.13;;;;;;;13.37;89.13;102402.13;5240517;28;20029;-71
2023/04/09 08:26:40;;;;;;;33.63;29.15;;;;;;;13.41;88.37;102402.75;5240793;28;20128;-70
2023/04/09 08:29:12;;;;;;;34.67;29.63;;;;;;;13.35;88.80;102397.00;5238059;28;20505;-70
2023/04/09 08:31:43;;;;;;;33.17;29.42;;;;;;;13.37;88.65;102389.84;5240717;28;20086;-69
2023/04/09 08:34:16;;;;;;;32.65;29.13;;;;;;;13.54;87.89;102393.88;5238531;28;20120;-70
2023/04/09 08:36:48;;;;;;;32.47;28.23;;;;;;;13.58;88.70;102381.31;5238852;28;20039;-73
2023/04/09 08:39:19;;;;;;;32.20;28.80;;;;;;;13.65;88.10;102387.81;5243011;28;20033;-70
2023/04/09 08:41:51;;;;;;;32.53;29.02;;;;;;;13.78;89.71;102385.97;5243041;28;20049;-71
2023/04/09 08:44:25;;;;;;;34.47;30.77;;;;;;;14.01;87.35;102386.03;5242538;28;20036;-70
2023/04/09 08:46:56;;;;;;;32.90;29.50;;;;;;;14.25;85.55;102384.22;5238528;28;20521;-70
2023/04/09 08:49:27;;;;;;;31.45;28.10;;;;;;;14.43;85.01;102381.13;5245030;28;20036;-70
2023/04/09 08:51:59;;;;;;;32.88;29.33;;;;;;;14.35;84.11;102381.69;5242089;28;20414;-70
2023/04/09 08:54:30;;;;;;;31.35;28.15;;;;;;;14.19;80.14;102376.75;5240317;28;20470;-70
2023/04/09 08:57:05;;;;;;;32.80;29.33;;;;;;;14.35;82.99;102374.63;5240991;28;20319;-70
2023/04/09 08:59:36;;;;;;;32.38;28.13;;;;;;;14.28;83.21;102383.13;5240885;28;20043;-70
2023/04/09 09:02:09;;;;;;;33.38;29.27;;;;;;;14.24;83.42;102379.03;5239274;28;20471;-70
2023/04/09 09:04:48;;;;;;;32.40;29.10;;;;;;;14.48;81.61;102384.25;5241253;28;20525;-70
2023/04/09 09:07:19;;;;;;;31.33;27.92;;;;;;;14.43;81.89;102383.75;5243263;28;20520;-70
2023/04/09 09:09:59;;;;;;;33.95;30.35;;;;;;;14.59;80.45;102379.03;5243822;28;20037;-70
2023/04/09 09:12:34;;;;;;;31.05;27.77;;;;;;;14.55;81.33;102378.44;5235213;28;20071;-71
2023/04/09 09:15:26;;;;;;;32.17;28.83;;;;;;;14.88;81.06;102382.00;5243821;28;20483;-70
2023/04/09 09:17:59;;;;;;;30.48;27.23;;;;;;;14.63;79.83;102377.00;5245113;28;20063;-70
2023/04/09 09:20:33;;;;;;;33.00;29.33;;;;;;;14.83;80.61;102381.53;5244144;28;20382;-70
2023/04/09 09:23:05;;;;;;;33.28;29.67;;;;;;;14.90;80.76;102379.28;5241307;28;20079;-71
2023/04/09 09:25:38;;;;;;;32.65;29.23;;;;;;;15.10;79.87;102381.16;5242913;28;20033;-71
2023/04/09 09:28:11;;;;;;;30.77;27.63;;;;;;;15.16;74.64;102380.69;5244795;28;20060;-71
2023/04/09 09:30:42;;;;;;;30.55;27.13;;;;;;;15.23;73.99;102376.59;5239189;28;20069;-70
2023/04/09 09:33:13;;;;;;;29.67;26.60;;;;;;;15.46;75.99;102376.53;5243428;28;20033;-71
2023/04/09 09:35:47;;;;;;;30.80;26.05;;;;;;;15.61;71.33;102370.00;5240593;28;20053;-71
2023/04/09 09:38:19;;;;;;;30.63;27.38;;;;;;;15.71;72.07;102370.94;5245765;28;20021;-71
2023/04/09 09:40:51;;;;;;;31.75;28.15;;;;;;;15.98;72.69;102365.16;5244617;28;20402;-71
2023/04/09 09:43:22;;;;;;;29.77;26.75;;;;;;;16.00;69.97;102362.41;5245172;28;20192;-71
2023/04/09 09:45:55;;;;;;;28.15;25.17;;;;;;;15.98;67.69;102359.03;5246536;28;20024;-71
2023/04/09 09:48:26;;;;;;;27.80;24.98;;;;;;;16.19;67.78;102354.59;5246779;28;20039;-71
2023/04/09 09:50:59;;;;;;;27.75;24.95;;;;;;;16.29;70.23;102358.16;5248256;28;20033;-71
2023/04/09 09:53:32;;;;;;;27.40;24.50;;;;;;;16.19;66.30;102343.19;5245983;28;20102;-71
2023/04/09 09:56:05;;;;;;;28.48;25.40;;;;;;;16.20;65.59;102350.97;5245049;28;20051;-71
2023/04/09 09:58:42;;;;;;;26.98;24.17;;;;;;;16.63;68.37;102347.31;5246682;28;20075;-71
2023/04/09 10:01:18;;;;;;;21.67;19.48;;;;;;;16.46;61.50;102346.13;5247965;28;20028;-71
2023/04/09 10:03:51;;;;;;;24.08;21.63;;;;;;;16.16;62.29;102344.28;5246940;28;20064;-71
2023/04/09 10:06:23;;;;;;;25.40;22.77;;;;;;;16.42;63.45;102335.94;5246996;28;20564;-71
2023/04/09 10:08:57;;;;;;;20.42;17.95;;;;;;;16.58;59.29;102338.91;5245406;28;20064;-71
2023/04/09 10:11:30;;;;;;;19.77;17.88;;;;;;;16.76;57.78;102341.81;5246174;28;20024;-71
2023/04/09 10:14:02;;;;;;;17.40;15.60;;;;;;;16.82;56.13;102341.28;5246196;28;20078;-71
2023/04/09 10:16:34;;;;;;;16.35;14.63;;;;;;;16.90;56.32;102332.69;5249542;28;20521;-71
2023/04/09 10:19:06;;;;;;;23.25;20.80;;;;;;;17.20;60.02;102322.00;5248089;28;20104;-71
2023/04/09 10:21:46;;;;;;;22.80;20.50;;;;;;;17.24;57.10;102322.56;5249863;28;20072;-71
2023/04/09 10:24:18;;;;;;;18.45;15.23;;;;;;;16.90;53.39;102324.75;5247638;28;20052;-71
2023/04/09 10:26:53;;;;;;;15.95;14.35;;;;;;;16.98;55.88;102322.25;5246363;28;20791;-71
2023/04/09 10:29:28;;;;;;;15.13;13.43;;;;;;;17.11;55.27;102309.56;5246668;28;20199;-71
2023/04/09 10:32:06;;;;;;;17.63;15.80;;;;;;;17.32;56.32;102312.13;5245214;28;20051;-71
2023/04/09 10:34:39;;;;;;;16.38;14.75;;;;;;;17.08;53.25;102312.50;5248968;28;20029;-71
2023/04/09 10:37:24;;;;;;;18.70;16.77;;;;;;;17.33;54.06;102311.13;5247134;28;20017;-71
2023/04/09 10:39:56;;;;;;;17.67;15.98;;;;;;;17.29;54.25;102306.25;5246207;28;20051;-71
2023/04/09 10:42:40;;;;;;;18.17;16.27;;;;;;;17.63;53.66;102296.06;5248105;28;20115;-71
2023/04/09 10:45:13;;;;;;;16.50;14.88;;;;;;;17.73;55.45;102295.09;5243753;28;20045;-71
2023/04/09 10:47:50;;;;;;;16.25;14.60;;;;;;;18.02;52.93;102298.69;5244223;28;20570;-71
2023/04/09 10:50:31;;;;;;;16.83;15.13;;;;;;;17.96;51.00;102294.81;5245857;28;20056;-71
2023/04/09 10:53:03;;;;;;;17.02;15.32;;;;;;;17.95;51.38;102277.22;5246261;28;20604;-71
2023/04/09 10:55:38;;;;;;;17.40;14.70;;;;;;;18.21;50.08;102290.66;5242497;28;20118;-71
2023/04/09 10:58:11;;;;;;;14.93;13.43;;;;;;;18.27;48.84;102290.09;5243951;28;20064;-71
2023/04/09 11:00:44;;;;;;;14.63;13.05;;;;;;;18.38;47.83;102283.78;5242456;28;20034;-71
2023/04/09 11:03:26;;;;;;;;;;;;;;;19.17;49.74;102296.50;5245930;28;20032;-71
2023/04/09 11:06:08;;;;;;;15.43;13.73;;;;;;;18.20;47.38;102287.19;5245391;28;19932;-71
2023/04/09 11:08:40;;;;;;;15.45;13.80;;;;;;;17.94;48.17;102286.16;5244672;28;20532;-71
2023/04/09 11:11:12;;;;;;;15.75;14.15;;;;;;;17.95;49.38;102277.22;5246560;28;20019;-71
2023/04/09 11:13:43;;;;;;;15.45;13.85;;;;;;;17.97;49.76;102273.44;5245610;28;20021;-71
2023/04/09 11:16:16;;;;;;;18.27;16.40;;;;;;;18.15;48.98;102273.53;5243951;28;20395;-71
2023/04/09 11:18:48;;;;;;;18.20;16.30;;;;;;;18.05;48.65;102264.75;5244528;28;20082;-72
2023/04/09 11:21:19;;;;;;;18.70;16.75;;;;;;;18.00;47.92;102272.31;5245443;28;20053;-71
2023/04/09 11:23:51;;;;;;;17.02;15.23;;;;;;;18.24;49.21;102266.50;5243748;28;20028;-71
2023/04/09 11:26:33;;;;;;;16.38;14.77;;;;;;;18.50;49.16;102269.34;5243922;28;20025;-71
2023/04/09 11:29:08;;;;;;;17.77;15.93;;;;;;;18.18;47.25;102272.38;5242721;28;20048;-72